createdAt,value
2023-02-08T09:34:28.734Z,103217.22
2023-02-08T09:37:42.506Z,103219.28
2023-02-08T09:40:59.919Z,103210.06
2023-02-08T09:48:04.136Z,103202.16
2023-02-08T09:51:22.106Z,103199.97
2023-02-08T09:54:42.862Z,103195.13
2023-02-08T09:58:07.881Z,103202.63
2023-02-08T10:01:19.632Z,103213.75
2023-02-08T10:04:38.552Z,103211.03
2023-02-08T10:08:09.509Z,103208.69
2023-02-08T10:11:49.256Z,103210.25
2023-02-08T10:15:13.399Z,103208.69
2023-02-08T10:18:53.585Z,103198.31
2023-02-08T10:22:21.447Z,103192.00
2023-02-08T10:25:59.465Z,103190.16
2023-02-08T10:30:00.588Z,103187.38
2023-02-08T10:33:09.550Z,103188.03
2023-02-08T10:36:17.041Z,103182.47
2023-02-08T10:39:25.484Z,103179.13
2023-02-08T10:42:30.940Z,103182.28
2023-02-08T10:45:42.233Z,103182.19
2023-02-08T10:49:00.009Z,103170.94
2023-02-08T10:52:03.268Z,103169.19
2023-02-08T10:55:14.845Z,103170.91
2023-02-08T10:58:21.295Z,103169.31
2023-02-08T11:01:24.307Z,103159.03
2023-02-08T11:04:27.010Z,103161.94
2023-02-08T11:07:30.168Z,103151.59
2023-02-08T11:10:33.076Z,103158.25
2023-02-08T11:13:39.140Z,103157.47
2023-02-08T11:16:43.256Z,103151.47
2023-02-08T11:19:46.964Z,103145.25
2023-02-08T11:22:49.470Z,103149.53
2023-02-08T11:25:53.257Z,103145.91
2023-02-08T11:29:06.046Z,103147.06
2023-02-08T11:32:18.255Z,103142.88
2023-02-08T11:35:22.610Z,103147.34
2023-02-08T11:38:27.629Z,103153.31
2023-02-08T11:41:30.863Z,103150.72
2023-02-08T11:44:36.898Z,103151.34
2023-02-08T11:47:39.477Z,103154.19
2023-02-08T11:50:42.880Z,103159.38
2023-02-08T11:53:49.261Z,103158.56
2023-02-08T11:57:02.813Z,103152.28
2023-02-08T12:00:21.038Z,103158.53
2023-02-08T12:03:27.362Z,103157.25
2023-02-08T12:07:02.710Z,103149.84
2023-02-08T12:10:32.254Z,103159.25
2023-02-08T12:13:57.073Z,103155.16
2023-02-08T12:17:25.713Z,103152.41
2023-02-08T12:20:37.077Z,103151.31
2023-02-08T12:23:51.421Z,103136.34
2023-02-08T12:27:08.891Z,103134.50
2023-02-08T12:30:21.370Z,103132.81
2023-02-08T12:33:40.017Z,103128.84
2023-02-08T12:37:16.366Z,103129.78
2023-02-08T12:40:49.012Z,103124.91
2023-02-08T12:44:02.274Z,103125.38
2023-02-08T12:47:16.961Z,103128.84
2023-02-08T12:50:27.426Z,103117.63
2023-02-08T12:53:34.789Z,103112.38
2023-02-08T12:56:42.441Z,103110.13
2023-02-08T12:59:50.679Z,103111.31
2023-02-08T13:03:02.900Z,103108.09
2023-02-08T13:06:09.002Z,103101.53
2023-02-08T13:09:18.940Z,103103.25
2023-02-08T13:12:24.862Z,103100.91
2023-02-08T13:15:33.775Z,103098.53
2023-02-08T13:18:40.914Z,103098.09
2023-02-08T13:21:45.545Z,103099.97
2023-02-08T13:24:55.294Z,103098.97
2023-02-08T13:28:05.832Z,103103.16
2023-02-08T13:31:14.215Z,103090.94
2023-02-08T13:34:23.485Z,103097.00
2023-02-08T13:37:31.469Z,103088.38
2023-02-08T13:40:36.264Z,103079.56
2023-02-08T13:43:43.572Z,103077.09
2023-02-08T13:46:48.579Z,103072.53
2023-02-08T13:50:00.858Z,103066.50
2023-02-08T13:53:05.342Z,103074.66
2023-02-08T13:56:10.350Z,103066.06
2023-02-08T13:59:30.133Z,103059.75
2023-02-08T14:02:32.645Z,103046.75
2023-02-08T14:05:47.293Z,103054.53
2023-02-08T14:08:58.369Z,103056.94
2023-02-08T14:12:06.250Z,103048.13
2023-02-08T14:15:26.459Z,103046.59
2023-02-08T14:18:29.833Z,103051.38
2023-02-08T14:21:37.348Z,103050.16
2023-02-08T14:24:43.913Z,103038.94
2023-02-08T14:27:52.470Z,103039.69
2023-02-08T14:30:58.829Z,103043.72
2023-02-08T14:34:01.525Z,103032.63
2023-02-08T14:37:07.574Z,103031.69
2023-02-08T14:40:35.107Z,103027.53
2023-02-08T14:43:39.119Z,103019.34
2023-02-08T14:46:45.641Z,103019.06
2023-02-08T14:49:48.966Z,103007.38
2023-02-08T14:52:59.883Z,103005.22
2023-02-08T14:56:08.507Z,103001.59
2023-02-08T14:59:15.718Z,103003.78
2023-02-08T15:02:22.861Z,102999.09
2023-02-08T15:05:28.069Z,103006.72
2023-02-08T15:08:30.722Z,102995.97
2023-02-08T15:11:36.350Z,102993.19
2023-02-08T15:14:41.834Z,102993.03
2023-02-08T15:17:48.075Z,102986.69
2023-02-08T15:21:01.712Z,102983.06
2023-02-08T15:24:07.847Z,102981.91
2023-02-08T15:27:21.959Z,102972.22
2023-02-08T15:30:32.754Z,102973.81
2023-02-08T15:33:38.129Z,102979.56
2023-02-08T15:36:40.920Z,102962.56
2023-02-08T15:39:43.756Z,102952.38
2023-02-08T15:42:47.634Z,102949.47
2023-02-08T15:45:57.691Z,102952.91
2023-02-08T15:49:00.666Z,102944.69
2023-02-08T15:52:04.207Z,102946.22
2023-02-08T15:55:07.859Z,102944.06
2023-02-08T15:58:19.426Z,102946.19
